sensor_id;sensor_type;location;lat;lon;timestamp;temperature;humidity
40289;DHT22;28991;52.028;5.526;2023-07-30T00:00:49;23.50;61.00
40289;DHT22;28991;52.028;5.526;2023-07-30T00:03:15;23.50;61.00
40289;DHT22;28991;52.028;5.526;2023-07-30T00:05:41;23.50;61.00
40289;DHT22;28991;52.028;5.526;2023-07-30T00:08:07;23.50;61.00
40289;DHT22;28991;52.028;5.526;2023-07-30T00:10:32;23.50;61.00
40289;DHT22;28991;52.028;5.526;2023-07-30T00:12:58;23.50;61.00
40289;DHT22;28991;52.028;5.526;2023-07-30T00:15:23;23.50;61.00
40289;DHT22;28991;52.028;5.526;2023-07-30T00:17:49;23.50;61.00
40289;DHT22;28991;52.028;5.526;2023-07-30T00:20:14;23.50;61.00
40289;DHT22;28991;52.028;5.526;2023-07-30T00:22:40;23.50;61.00
40289;DHT22;28991;52.028;5.526;2023-07-30T00:25:06;23.40;61.00
40289;DHT22;28991;52.028;5.526;2023-07-30T00:27:31;23.40;61.00
40289;DHT22;28991;52.028;5.526;2023-07-30T00:29:57;23.40;61.00
40289;DHT22;28991;52.028;5.526;2023-07-30T00:32:23;23.50;61.00
40289;DHT22;28991;52.028;5.526;2023-07-30T00:34:48;23.50;61.10
40289;DHT22;28991;52.028;5.526;2023-07-30T00:37:14;23.50;61.10
40289;DHT22;28991;52.028;5.526;2023-07-30T00:39:39;23.40;61.00
40289;DHT22;28991;52.028;5.526;2023-07-30T00:42:05;23.50;61.10
40289;DHT22;28991;52.028;5.526;2023-07-30T00:44:31;23.40;61.00
40289;DHT22;28991;52.028;5.526;2023-07-30T00:46:56;23.50;61.10
40289;DHT22;28991;52.028;5.526;2023-07-30T00:49:22;23.30;61.00
40289;DHT22;28991;52.028;5.526;2023-07-30T00:51:47;23.50;61.10
40289;DHT22;28991;52.028;5.526;2023-07-30T00:54:13;23.40;61.10
40289;DHT22;28991;52.028;5.526;2023-07-30T00:56:45;23.40;61.10
40289;DHT22;28991;52.028;5.526;2023-07-30T00:59:13;23.50;61.10
40289;DHT22;28991;52.028;5.526;2023-07-30T01:01:41;23.40;61.10
40289;DHT22;28991;52.028;5.526;2023-07-30T01:04:09;23.40;61.10
40289;DHT22;28991;52.028;5.526;2023-07-30T01:06:34;23.30;61.00
40289;DHT22;28991;52.028;5.526;2023-07-30T01:09:00;23.40;61.10
40289;DHT22;28991;52.028;5.526;2023-07-30T01:11:26;23.60;61.20
40289;DHT22;28991;52.028;5.526;2023-07-30T01:13:52;23.40;61.70
40289;DHT22;28991;52.028;5.526;2023-07-30T01:16:18;23.40;61.10
40289;DHT22;28991;52.028;5.526;2023-07-30T01:18:44;23.40;61.10
40289;DHT22;28991;52.028;5.526;2023-07-30T01:21:09;23.40;61.10
40289;DHT22;28991;52.028;5.526;2023-07-30T01:23:35;23.30;61.00
40289;DHT22;28991;52.028;5.526;2023-07-30T01:26:20;23.30;61.10
40289;DHT22;28991;52.028;5.526;2023-07-30T01:28:49;23.40;61.20
40289;DHT22;28991;52.028;5.526;2023-07-30T01:31:18;23.40;61.10
40289;DHT22;28991;52.028;5.526;2023-07-30T01:33:48;23.40;61.10
40289;DHT22;28991;52.028;5.526;2023-07-30T01:36:15;23.60;61.30
40289;DHT22;28991;52.028;5.526;2023-07-30T01:38:42;23.40;61.10
40289;DHT22;28991;52.028;5.526;2023-07-30T01:41:08;23.40;61.10
40289;DHT22;28991;52.028;5.526;2023-07-30T01:43:34;23.30;61.10
40289;DHT22;28991;52.028;5.526;2023-07-30T01:46:00;23.40;61.10
40289;DHT22;28991;52.028;5.526;2023-07-30T01:48:26;23.30;61.10
40289;DHT22;28991;52.028;5.526;2023-07-30T01:50:52;23.40;61.20
40289;DHT22;28991;52.028;5.526;2023-07-30T01:53:17;23.40;61.10
40289;DHT22;28991;52.028;5.526;2023-07-30T01:55:43;23.40;61.20
40289;DHT22;28991;52.028;5.526;2023-07-30T01:58:11;23.30;61.10
40289;DHT22;28991;52.028;5.526;2023-07-30T02:00:37;23.30;61.10
40289;DHT22;28991;52.028;5.526;2023-07-30T02:03:02;23.30;61.10
40289;DHT22;28991;52.028;5.526;2023-07-30T02:05:28;23.40;61.20
40289;DHT22;28991;52.028;5.526;2023-07-30T02:07:54;23.30;61.10
40289;DHT22;28991;52.028;5.526;2023-07-30T02:10:19;23.30;61.10
40289;DHT22;28991;52.028;5.526;2023-07-30T02:12:45;23.30;61.10
40289;DHT22;28991;52.028;5.526;2023-07-30T02:15:10;23.30;61.10
40289;DHT22;28991;52.028;5.526;2023-07-30T02:17:36;23.30;61.10
40289;DHT22;28991;52.028;5.526;2023-07-30T02:20:02;23.40;61.20
40289;DHT22;28991;52.028;5.526;2023-07-30T02:22:28;23.30;61.10
40289;DHT22;28991;52.028;5.526;2023-07-30T02:24:53;23.30;61.10
40289;DHT22;28991;52.028;5.526;2023-07-30T02:27:19;23.30;61.10
40289;DHT22;28991;52.028;5.526;2023-07-30T02:29:44;23.30;61.10
40289;DHT22;28991;52.028;5.526;2023-07-30T02:32:10;23.30;61.80
40289;DHT22;28991;52.028;5.526;2023-07-30T02:34:36;23.30;61.10
40289;DHT22;28991;52.028;5.526;2023-07-30T02:37:01;23.30;61.10
40289;DHT22;28991;52.028;5.526;2023-07-30T02:39:27;23.30;61.10
40289;DHT22;28991;52.028;5.526;2023-07-30T02:41:52;23.30;61.10
40289;DHT22;28991;52.028;5.526;2023-07-30T02:44:18;23.30;61.10
40289;DHT22;28991;52.028;5.526;2023-07-30T02:46:43;23.20;61.10
40289;DHT22;28991;52.028;5.526;2023-07-30T02:49:09;23.30;61.10
40289;DHT22;28991;52.028;5.526;2023-07-30T02:51:34;23.30;61.20
40289;DHT22;28991;52.028;5.526;2023-07-30T02:54:04;23.30;61.10
40289;DHT22;28991;52.028;5.526;2023-07-30T02:56:29;23.30;61.20
40289;DHT22;28991;52.028;5.526;2023-07-30T02:58:55;23.30;61.20
40289;DHT22;28991;52.028;5.526;2023-07-30T03:01:21;23.30;61.20
40289;DHT22;28991;52.028;5.526;2023-07-30T03:03:46;23.30;61.10
40289;DHT22;28991;52.028;5.526;2023-07-30T03:06:12;23.30;61.20
40289;DHT22;28991;52.028;5.526;2023-07-30T03:08:37;23.30;61.20
40289;DHT22;28991;52.028;5.526;2023-07-30T03:11:04;23.30;61.20
40289;DHT22;28991;52.028;5.526;2023-07-30T03:13:29;23.30;61.40
40289;DHT22;28991;52.028;5.526;2023-07-30T03:15:55;23.30;61.20
40289;DHT22;28991;52.028;5.526;2023-07-30T03:18:20;23.30;61.10
40289;DHT22;28991;52.028;5.526;2023-07-30T03:20:46;23.30;61.20
40289;DHT22;28991;52.028;5.526;2023-07-30T03:23:12;23.30;61.20
40289;DHT22;28991;52.028;5.526;2023-07-30T03:25:37;23.30;61.20
40289;DHT22;28991;52.028;5.526;2023-07-30T03:28:03;23.30;61.10
40289;DHT22;28991;52.028;5.526;2023-07-30T03:30:29;23.30;61.20
40289;DHT22;28991;52.028;5.526;2023-07-30T03:32:54;23.30;61.20
40289;DHT22;28991;52.028;5.526;2023-07-30T03:35:20;23.30;61.20
40289;DHT22;28991;52.028;5.526;2023-07-30T03:37:45;23.30;61.20
40289;DHT22;28991;52.028;5.526;2023-07-30T03:40:11;23.30;61.20
40289;DHT22;28991;52.028;5.526;2023-07-30T03:42:37;23.30;61.20
40289;DHT22;28991;52.028;5.526;2023-07-30T03:45:03;23.20;61.10
40289;DHT22;28991;52.028;5.526;2023-07-30T03:47:28;23.30;61.20
40289;DHT22;28991;52.028;5.526;2023-07-30T03:49:54;23.20;61.20
40289;DHT22;28991;52.028;5.526;2023-07-30T03:52:19;23.20;61.10
40289;DHT22;28991;52.028;5.526;2023-07-30T03:54:45;23.30;61.20
40289;DHT22;28991;52.028;5.526;2023-07-30T03:57:10;23.20;61.10
40289;DHT22;28991;52.028;5.526;2023-07-30T03:59:36;23.20;61.10
40289;DHT22;28991;52.028;5.526;2023-07-30T04:02:02;23.20;61.10
40289;DHT22;28991;52.028;5.526;2023-07-30T04:04:27;23.20;61.10
40289;DHT22;28991;52.028;5.526;2023-07-30T04:06:53;23.20;61.10
40289;DHT22;28991;52.028;5.526;2023-07-30T04:09:19;23.30;61.20
40289;DHT22;28991;52.028;5.526;2023-07-30T04:11:44;23.20;61.10
40289;DHT22;28991;52.028;5.526;2023-07-30T04:14:10;23.20;61.10
40289;DHT22;28991;52.028;5.526;2023-07-30T04:16:35;23.30;61.20
40289;DHT22;28991;52.028;5.526;2023-07-30T04:19:01;23.20;61.10
40289;DHT22;28991;52.028;5.526;2023-07-30T04:21:27;23.20;61.10
40289;DHT22;28991;52.028;5.526;2023-07-30T04:23:52;23.20;61.10
40289;DHT22;28991;52.028;5.526;2023-07-30T04:26:18;23.20;61.10
40289;DHT22;28991;52.028;5.526;2023-07-30T04:28:43;23.20;61.10
40289;DHT22;28991;52.028;5.526;2023-07-30T04:31:09;23.20;61.10
40289;DHT22;28991;52.028;5.526;2023-07-30T04:33:34;23.20;61.10
40289;DHT22;28991;52.028;5.526;2023-07-30T04:36:00;23.30;61.20
40289;DHT22;28991;52.028;5.526;2023-07-30T04:38:26;23.40;61.20
40289;DHT22;28991;52.028;5.526;2023-07-30T04:40:51;23.20;61.10
40289;DHT22;28991;52.028;5.526;2023-07-30T04:43:17;23.20;61.10
40289;DHT22;28991;52.028;5.526;2023-07-30T04:45:42;23.20;61.10
40289;DHT22;28991;52.028;5.526;2023-07-30T04:48:08;23.20;61.10
40289;DHT22;28991;52.028;5.526;2023-07-30T04:50:34;23.20;61.10
40289;DHT22;28991;52.028;5.526;2023-07-30T04:52:59;23.20;61.10
40289;DHT22;28991;52.028;5.526;2023-07-30T04:55:25;23.30;61.10
40289;DHT22;28991;52.028;5.526;2023-07-30T04:57:51;23.20;61.10
40289;DHT22;28991;52.028;5.526;2023-07-30T05:00:16;23.20;61.10
40289;DHT22;28991;52.028;5.526;2023-07-30T05:02:42;23.20;61.10
40289;DHT22;28991;52.028;5.526;2023-07-30T05:05:08;23.20;61.10
40289;DHT22;28991;52.028;5.526;2023-07-30T05:07:34;23.20;61.10
40289;DHT22;28991;52.028;5.526;2023-07-30T05:09:59;23.20;61.10
40289;DHT22;28991;52.028;5.526;2023-07-30T05:12:25;23.20;61.10
40289;DHT22;28991;52.028;5.526;2023-07-30T05:14:50;23.20;61.10
40289;DHT22;28991;52.028;5.526;2023-07-30T05:17:16;23.20;61.10
40289;DHT22;28991;52.028;5.526;2023-07-30T05:19:41;23.20;61.10
40289;DHT22;28991;52.028;5.526;2023-07-30T05:22:07;23.20;61.00
40289;DHT22;28991;52.028;5.526;2023-07-30T05:24:33;23.10;61.00
40289;DHT22;28991;52.028;5.526;2023-07-30T05:26:59;23.20;61.00
40289;DHT22;28991;52.028;5.526;2023-07-30T05:29:24;23.20;61.00
40289;DHT22;28991;52.028;5.526;2023-07-30T05:31:50;23.30;61.10
40289;DHT22;28991;52.028;5.526;2023-07-30T05:34:15;23.30;61.00
40289;DHT22;28991;52.028;5.526;2023-07-30T05:36:41;23.30;61.00
40289;DHT22;28991;52.028;5.526;2023-07-30T05:39:06;23.30;61.00
40289;DHT22;28991;52.028;5.526;2023-07-30T05:41:32;23.30;61.00
40289;DHT22;28991;52.028;5.526;2023-07-30T05:43:58;23.30;61.00
40289;DHT22;28991;52.028;5.526;2023-07-30T05:46:23;23.30;60.90
40289;DHT22;28991;52.028;5.526;2023-07-30T05:48:49;23.20;60.90
40289;DHT22;28991;52.028;5.526;2023-07-30T05:51:14;23.30;60.90
40289;DHT22;28991;52.028;5.526;2023-07-30T05:53:40;23.40;61.00
40289;DHT22;28991;52.028;5.526;2023-07-30T05:56:05;23.30;60.90
40289;DHT22;28991;52.028;5.526;2023-07-30T05:58:31;23.30;60.90
40289;DHT22;28991;52.028;5.526;2023-07-30T06:00:57;23.30;60.90
40289;DHT22;28991;52.028;5.526;2023-07-30T06:03:22;23.50;61.00
40289;DHT22;28991;52.028;5.526;2023-07-30T06:05:48;23.30;60.90
40289;DHT22;28991;52.028;5.526;2023-07-30T06:08:13;23.50;61.00
40289;DHT22;28991;52.028;5.526;2023-07-30T06:10:39;23.20;60.80
40289;DHT22;28991;52.028;5.526;2023-07-30T06:13:06;23.30;60.90
40289;DHT22;28991;52.028;5.526;2023-07-30T06:15:32;23.30;60.80
40289;DHT22;28991;52.028;5.526;2023-07-30T06:17:58;23.30;61.40
40289;DHT22;28991;52.028;5.526;2023-07-30T06:20:29;23.30;60.80
40289;DHT22;28991;52.028;5.526;2023-07-30T06:22:54;23.30;60.80
40289;DHT22;28991;52.028;5.526;2023-07-30T06:25:20;23.30;60.80
40289;DHT22;28991;52.028;5.526;2023-07-30T06:27:46;23.30;60.80
40289;DHT22;28991;52.028;5.526;2023-07-30T06:30:11;23.30;60.80
40289;DHT22;28991;52.028;5.526;2023-07-30T06:32:37;23.30;60.80
40289;DHT22;28991;52.028;5.526;2023-07-30T06:35:03;23.30;60.80
40289;DHT22;28991;52.028;5.526;2023-07-30T06:37:28;23.30;60.70
40289;DHT22;28991;52.028;5.526;2023-07-30T06:39:54;23.30;60.70
40289;DHT22;28991;52.028;5.526;2023-07-30T06:42:20;23.30;60.70
40289;DHT22;28991;52.028;5.526;2023-07-30T06:44:45;23.30;60.60
40289;DHT22;28991;52.028;5.526;2023-07-30T06:47:11;23.30;60.60
40289;DHT22;28991;52.028;5.526;2023-07-30T06:49:36;23.30;60.50
40289;DHT22;28991;52.028;5.526;2023-07-30T06:52:02;23.30;60.40
40289;DHT22;28991;52.028;5.526;2023-07-30T06:54:29;23.30;60.40
40289;DHT22;28991;52.028;5.526;2023-07-30T06:56:55;23.30;60.40
40289;DHT22;28991;52.028;5.526;2023-07-30T06:59:20;23.20;60.40
40289;DHT22;28991;52.028;5.526;2023-07-30T07:01:46;23.20;60.40
40289;DHT22;28991;52.028;5.526;2023-07-30T07:04:11;23.20;60.50
40289;DHT22;28991;52.028;5.526;2023-07-30T07:06:37;23.20;60.50
40289;DHT22;28991;52.028;5.526;2023-07-30T07:09:02;23.10;60.50
40289;DHT22;28991;52.028;5.526;2023-07-30T07:11:28;23.10;60.60
40289;DHT22;28991;52.028;5.526;2023-07-30T07:13:54;23.10;60.70
40289;DHT22;28991;52.028;5.526;2023-07-30T07:16:19;23.00;60.70
40289;DHT22;28991;52.028;5.526;2023-07-30T07:18:45;23.10;60.80
40289;DHT22;28991;52.028;5.526;2023-07-30T07:21:11;22.90;60.70
40289;DHT22;28991;52.028;5.526;2023-07-30T07:23:36;23.00;60.80
40289;DHT22;28991;52.028;5.526;2023-07-30T07:26:02;23.00;60.80
40289;DHT22;28991;52.028;5.526;2023-07-30T07:28:27;23.00;60.80
40289;DHT22;28991;52.028;5.526;2023-07-30T07:30:54;23.00;60.90
40289;DHT22;28991;52.028;5.526;2023-07-30T07:33:20;22.90;60.80
40289;DHT22;28991;52.028;5.526;2023-07-30T07:35:46;22.90;60.80
40289;DHT22;28991;52.028;5.526;2023-07-30T07:38:11;22.90;60.80
40289;DHT22;28991;52.028;5.526;2023-07-30T07:40:37;22.80;60.70
40289;DHT22;28991;52.028;5.526;2023-07-30T07:43:07;22.90;60.60
40289;DHT22;28991;52.028;5.526;2023-07-30T07:45:32;23.00;60.70
40289;DHT22;28991;52.028;5.526;2023-07-30T07:47:58;22.80;60.50
40289;DHT22;28991;52.028;5.526;2023-07-30T07:50:23;22.80;60.40
40289;DHT22;28991;52.028;5.526;2023-07-30T07:52:49;22.80;60.40
40289;DHT22;28991;52.028;5.526;2023-07-30T07:55:15;22.80;60.40
40289;DHT22;28991;52.028;5.526;2023-07-30T07:57:40;22.80;60.40
40289;DHT22;28991;52.028;5.526;2023-07-30T08:00:07;22.80;60.40
40289;DHT22;28991;52.028;5.526;2023-07-30T08:02:32;22.80;60.40
40289;DHT22;28991;52.028;5.526;2023-07-30T08:04:58;22.80;60.40
40289;DHT22;28991;52.028;5.526;2023-07-30T08:07:23;22.80;60.40
40289;DHT22;28991;52.028;5.526;2023-07-30T08:09:49;22.80;60.40
40289;DHT22;28991;52.028;5.526;2023-07-30T08:12:17;22.80;60.30
40289;DHT22;28991;52.028;5.526;2023-07-30T08:14:42;22.80;60.30
40289;DHT22;28991;52.028;5.526;2023-07-30T08:17:08;22.80;60.20
40289;DHT22;28991;52.028;5.526;2023-07-30T08:19:33;22.80;60.20
40289;DHT22;28991;52.028;5.526;2023-07-30T08:21:59;22.90;60.20
40289;DHT22;28991;52.028;5.526;2023-07-30T08:24:24;22.90;60.10
40289;DHT22;28991;52.028;5.526;2023-07-30T08:26:50;22.90;60.00
40289;DHT22;28991;52.028;5.526;2023-07-30T08:29:15;23.00;60.00
40289;DHT22;28991;52.028;5.526;2023-07-30T08:31:41;23.00;60.00
40289;DHT22;28991;52.028;5.526;2023-07-30T08:34:07;23.00;59.90
40289;DHT22;28991;52.028;5.526;2023-07-30T08:36:33;23.00;59.80
40289;DHT22;28991;52.028;5.526;2023-07-30T08:38:58;23.10;59.80
40289;DHT22;28991;52.028;5.526;2023-07-30T08:41:24;23.00;59.70
40289;DHT22;28991;52.028;5.526;2023-07-30T08:43:50;23.10;59.70
40289;DHT22;28991;52.028;5.526;2023-07-30T08:46:17;23.10;59.60
40289;DHT22;28991;52.028;5.526;2023-07-30T08:48:42;23.10;59.60
40289;DHT22;28991;52.028;5.526;2023-07-30T08:51:08;23.00;59.50
40289;DHT22;28991;52.028;5.526;2023-07-30T08:53:35;23.10;59.50
40289;DHT22;28991;52.028;5.526;2023-07-30T08:56:01;23.00;59.40
40289;DHT22;28991;52.028;5.526;2023-07-30T08:58:28;23.00;59.30
40289;DHT22;28991;52.028;5.526;2023-07-30T09:00:55;23.10;59.40
40289;DHT22;28991;52.028;5.526;2023-07-30T09:03:22;23.00;59.30
40289;DHT22;28991;52.028;5.526;2023-07-30T09:05:49;23.00;59.30
40289;DHT22;28991;52.028;5.526;2023-07-30T09:08:15;23.00;59.30
40289;DHT22;28991;52.028;5.526;2023-07-30T09:10:41;23.00;59.30
40289;DHT22;28991;52.028;5.526;2023-07-30T09:13:06;23.00;59.40
40289;DHT22;28991;52.028;5.526;2023-07-30T09:15:34;23.00;59.30
40289;DHT22;28991;52.028;5.526;2023-07-30T09:18:03;23.00;59.30
40289;DHT22;28991;52.028;5.526;2023-07-30T09:20:37;23.00;59.30
40289;DHT22;28991;52.028;5.526;2023-07-30T09:23:03;23.00;59.20
40289;DHT22;28991;52.028;5.526;2023-07-30T09:25:28;22.90;59.20
40289;DHT22;28991;52.028;5.526;2023-07-30T09:27:54;23.00;59.20
40289;DHT22;28991;52.028;5.526;2023-07-30T09:30:24;23.00;59.20
40289;DHT22;28991;52.028;5.526;2023-07-30T09:32:57;23.00;59.10
40289;DHT22;28991;52.028;5.526;2023-07-30T09:35:24;23.00;59.00
40289;DHT22;28991;52.028;5.526;2023-07-30T09:37:57;23.10;59.00
40289;DHT22;28991;52.028;5.526;2023-07-30T09:40:34;23.10;58.80
40289;DHT22;28991;52.028;5.526;2023-07-30T09:42:59;23.10;58.70
40289;DHT22;28991;52.028;5.526;2023-07-30T09:45:26;23.10;58.60
40289;DHT22;28991;52.028;5.526;2023-07-30T09:47:53;23.20;58.60
40289;DHT22;28991;52.028;5.526;2023-07-30T09:50:20;23.20;58.60
40289;DHT22;28991;52.028;5.526;2023-07-30T09:52:45;23.50;58.60
40289;DHT22;28991;52.028;5.526;2023-07-30T09:55:11;23.20;58.40
40289;DHT22;28991;52.028;5.526;2023-07-30T09:57:37;23.30;58.40
40289;DHT22;28991;52.028;5.526;2023-07-30T10:00:04;23.20;58.20
40289;DHT22;28991;52.028;5.526;2023-07-30T10:02:32;23.20;58.00
40289;DHT22;28991;52.028;5.526;2023-07-30T10:05:01;23.30;58.00
40289;DHT22;28991;52.028;5.526;2023-07-30T10:07:28;23.20;57.70
40289;DHT22;28991;52.028;5.526;2023-07-30T10:09:58;23.30;57.80
40289;DHT22;28991;52.028;5.526;2023-07-30T10:12:32;23.30;57.60
40289;DHT22;28991;52.028;5.526;2023-07-30T10:14:59;23.30;57.50
40289;DHT22;28991;52.028;5.526;2023-07-30T10:17:26;23.30;57.50
40289;DHT22;28991;52.028;5.526;2023-07-30T10:19:54;23.30;57.40
40289;DHT22;28991;52.028;5.526;2023-07-30T10:22:23;23.40;57.30
40289;DHT22;28991;52.028;5.526;2023-07-30T10:25:01;23.40;57.10
40289;DHT22;28991;52.028;5.526;2023-07-30T10:27:38;23.40;57.10
40289;DHT22;28991;52.028;5.526;2023-07-30T10:30:15;23.50;57.00
40289;DHT22;28991;52.028;5.526;2023-07-30T10:32:42;23.40;56.90
40289;DHT22;28991;52.028;5.526;2023-07-30T10:35:38;23.40;57.00
40289;DHT22;28991;52.028;5.526;2023-07-30T10:40:59;23.40;56.80
40289;DHT22;28991;52.028;5.526;2023-07-30T10:43:36;23.50;56.80
40289;DHT22;28991;52.028;5.526;2023-07-30T10:46:03;23.50;56.80
40289;DHT22;28991;52.028;5.526;2023-07-30T10:48:38;23.50;56.80
40289;DHT22;28991;52.028;5.526;2023-07-30T10:51:15;23.50;56.70
40289;DHT22;28991;52.028;5.526;2023-07-30T10:56:10;23.80;56.90
40289;DHT22;28991;52.028;5.526;2023-07-30T10:58:36;23.50;56.70
40289;DHT22;28991;52.028;5.526;2023-07-30T11:01:07;23.50;56.70
40289;DHT22;28991;52.028;5.526;2023-07-30T11:03:34;23.50;56.60
40289;DHT22;28991;52.028;5.526;2023-07-30T11:06:02;23.50;56.90
40289;DHT22;28991;52.028;5.526;2023-07-30T11:08:36;23.60;57.00
40289;DHT22;28991;52.028;5.526;2023-07-30T11:11:02;23.60;57.00
40289;DHT22;28991;52.028;5.526;2023-07-30T11:13:28;23.60;57.00
40289;DHT22;28991;52.028;5.526;2023-07-30T11:15:53;23.60;57.00
40289;DHT22;28991;52.028;5.526;2023-07-30T11:18:19;23.60;57.00
40289;DHT22;28991;52.028;5.526;2023-07-30T11:20:45;23.60;57.00
40289;DHT22;28991;52.028;5.526;2023-07-30T11:23:23;23.60;57.00
40289;DHT22;28991;52.028;5.526;2023-07-30T11:25:52;23.70;57.00
40289;DHT22;28991;52.028;5.526;2023-07-30T11:28:38;23.60;57.00
40289;DHT22;28991;52.028;5.526;2023-07-30T11:31:11;23.60;57.00
40289;DHT22;28991;52.028;5.526;2023-07-30T11:33:42;23.60;57.00
40289;DHT22;28991;52.028;5.526;2023-07-30T11:36:11;23.70;57.00
40289;DHT22;28991;52.028;5.526;2023-07-30T11:38:38;23.70;57.00
40289;DHT22;28991;52.028;5.526;2023-07-30T11:41:04;23.70;57.00
40289;DHT22;28991;52.028;5.526;2023-07-30T11:43:31;23.70;57.00
40289;DHT22;28991;52.028;5.526;2023-07-30T11:46:22;23.70;57.00
40289;DHT22;28991;52.028;5.526;2023-07-30T11:48:50;23.70;57.00
40289;DHT22;28991;52.028;5.526;2023-07-30T11:51:25;23.70;57.00
40289;DHT22;28991;52.028;5.526;2023-07-30T11:56:23;23.70;57.00
40289;DHT22;28991;52.028;5.526;2023-07-30T11:58:51;23.70;57.00
40289;DHT22;28991;52.028;5.526;2023-07-30T12:01:18;23.80;57.10
40289;DHT22;28991;52.028;5.526;2023-07-30T12:03:43;23.70;57.00
40289;DHT22;28991;52.028;5.526;2023-07-30T12:06:10;23.70;57.00
40289;DHT22;28991;52.028;5.526;2023-07-30T12:08:36;23.70;57.00
40289;DHT22;28991;52.028;5.526;2023-07-30T12:11:07;23.70;57.00
40289;DHT22;28991;52.028;5.526;2023-07-30T12:13:33;23.70;57.00
40289;DHT22;28991;52.028;5.526;2023-07-30T12:15:58;23.70;57.10
40289;DHT22;28991;52.028;5.526;2023-07-30T12:18:25;23.70;57.00
40289;DHT22;28991;52.028;5.526;2023-07-30T12:20:52;23.70;57.00
40289;DHT22;28991;52.028;5.526;2023-07-30T12:23:18;23.70;57.10
40289;DHT22;28991;52.028;5.526;2023-07-30T12:25:45;23.70;57.00
40289;DHT22;28991;52.028;5.526;2023-07-30T12:28:11;23.70;57.10
40289;DHT22;28991;52.028;5.526;2023-07-30T12:30:36;23.70;57.10
40289;DHT22;28991;52.028;5.526;2023-07-30T12:33:06;23.70;57.10
40289;DHT22;28991;52.028;5.526;2023-07-30T12:35:32;23.70;57.60
40289;DHT22;28991;52.028;5.526;2023-07-30T12:37:59;23.70;57.10
40289;DHT22;28991;52.028;5.526;2023-07-30T12:40:24;23.70;57.10
40289;DHT22;28991;52.028;5.526;2023-07-30T12:42:50;23.70;57.10
40289;DHT22;28991;52.028;5.526;2023-07-30T12:45:16;23.70;57.10
40289;DHT22;28991;52.028;5.526;2023-07-30T12:47:42;23.70;57.10
40289;DHT22;28991;52.028;5.526;2023-07-30T12:50:07;23.70;57.20
40289;DHT22;28991;52.028;5.526;2023-07-30T12:52:34;23.70;57.10
40289;DHT22;28991;52.028;5.526;2023-07-30T12:55:00;23.70;57.20
40289;DHT22;28991;52.028;5.526;2023-07-30T12:57:26;23.70;57.10
40289;DHT22;28991;52.028;5.526;2023-07-30T12:59:51;23.70;57.20
40289;DHT22;28991;52.028;5.526;2023-07-30T13:02:17;23.70;57.20
40289;DHT22;28991;52.028;5.526;2023-07-30T13:04:42;23.60;57.10
40289;DHT22;28991;52.028;5.526;2023-07-30T13:07:08;23.70;57.20
40289;DHT22;28991;52.028;5.526;2023-07-30T13:09:34;23.60;57.10
40289;DHT22;28991;52.028;5.526;2023-07-30T13:12:00;23.70;57.20
40289;DHT22;28991;52.028;5.526;2023-07-30T13:14:25;23.70;57.20
40289;DHT22;28991;52.028;5.526;2023-07-30T13:16:51;23.70;57.20
40289;DHT22;28991;52.028;5.526;2023-07-30T13:19:16;23.70;57.20
40289;DHT22;28991;52.028;5.526;2023-07-30T13:21:42;23.70;57.20
40289;DHT22;28991;52.028;5.526;2023-07-30T13:24:07;23.70;57.20
40289;DHT22;28991;52.028;5.526;2023-07-30T13:26:34;23.60;57.10
40289;DHT22;28991;52.028;5.526;2023-07-30T13:29:00;23.60;57.20
40289;DHT22;28991;52.028;5.526;2023-07-30T13:31:25;23.70;57.20
40289;DHT22;28991;52.028;5.526;2023-07-30T13:33:51;23.70;57.20
40289;DHT22;28991;52.028;5.526;2023-07-30T13:36:17;23.60;57.20
40289;DHT22;28991;52.028;5.526;2023-07-30T13:38:42;23.70;57.20
40289;DHT22;28991;52.028;5.526;2023-07-30T13:41:09;23.60;57.20
40289;DHT22;28991;52.028;5.526;2023-07-30T13:43:35;23.60;57.20
40289;DHT22;28991;52.028;5.526;2023-07-30T13:46:00;23.70;57.30
40289;DHT22;28991;52.028;5.526;2023-07-30T13:48:26;23.60;57.20
40289;DHT22;28991;52.028;5.526;2023-07-30T13:50:52;23.60;57.20
40289;DHT22;28991;52.028;5.526;2023-07-30T13:53:18;23.70;57.20
40289;DHT22;28991;52.028;5.526;2023-07-30T13:55:44;23.70;57.30
40289;DHT22;28991;52.028;5.526;2023-07-30T13:58:10;23.60;57.20
40289;DHT22;28991;52.028;5.526;2023-07-30T14:00:36;23.70;57.30
40289;DHT22;28991;52.028;5.526;2023-07-30T14:03:02;23.70;57.30
40289;DHT22;28991;52.028;5.526;2023-07-30T14:05:27;23.60;57.20
40289;DHT22;28991;52.028;5.526;2023-07-30T14:07:54;23.60;57.20
40289;DHT22;28991;52.028;5.526;2023-07-30T14:10:22;23.60;57.20
40289;DHT22;28991;52.028;5.526;2023-07-30T14:12:48;23.60;57.20
40289;DHT22;28991;52.028;5.526;2023-07-30T14:15:13;23.60;57.20
40289;DHT22;28991;52.028;5.526;2023-07-30T14:17:40;23.60;57.20
40289;DHT22;28991;52.028;5.526;2023-07-30T14:20:06;23.60;57.30
40289;DHT22;28991;52.028;5.526;2023-07-30T14:22:32;23.60;57.20
40289;DHT22;28991;52.028;5.526;2023-07-30T14:24:58;23.70;57.30
40289;DHT22;28991;52.028;5.526;2023-07-30T14:27:24;23.60;57.20
40289;DHT22;28991;52.028;5.526;2023-07-30T14:29:50;23.60;57.20
40289;DHT22;28991;52.028;5.526;2023-07-30T14:32:16;23.60;57.30
40289;DHT22;28991;52.028;5.526;2023-07-30T14:34:42;23.60;57.30
40289;DHT22;28991;52.028;5.526;2023-07-30T14:37:08;23.60;57.20
40289;DHT22;28991;52.028;5.526;2023-07-30T14:39:33;23.60;57.30
40289;DHT22;28991;52.028;5.526;2023-07-30T14:41:59;23.70;57.30
40289;DHT22;28991;52.028;5.526;2023-07-30T14:44:24;23.60;57.30
40289;DHT22;28991;52.028;5.526;2023-07-30T14:46:50;23.60;57.30
40289;DHT22;28991;52.028;5.526;2023-07-30T14:49:16;23.60;57.30
40289;DHT22;28991;52.028;5.526;2023-07-30T14:51:42;23.80;57.40
40289;DHT22;28991;52.028;5.526;2023-07-30T14:54:08;23.60;57.30
40289;DHT22;28991;52.028;5.526;2023-07-30T14:56:35;23.60;57.30
40289;DHT22;28991;52.028;5.526;2023-07-30T14:59:01;23.60;57.30
40289;DHT22;28991;52.028;5.526;2023-07-30T15:01:30;23.60;57.30
40289;DHT22;28991;52.028;5.526;2023-07-30T15:03:56;23.60;57.30
40289;DHT22;28991;52.028;5.526;2023-07-30T15:06:21;23.60;57.30
40289;DHT22;28991;52.028;5.526;2023-07-30T15:08:47;23.60;57.30
40289;DHT22;28991;52.028;5.526;2023-07-30T15:11:13;23.60;57.30
40289;DHT22;28991;52.028;5.526;2023-07-30T15:13:39;23.60;57.30
40289;DHT22;28991;52.028;5.526;2023-07-30T15:16:05;23.60;57.30
40289;DHT22;28991;52.028;5.526;2023-07-30T15:18:31;23.60;57.30
40289;DHT22;28991;52.028;5.526;2023-07-30T15:20:58;23.60;57.30
40289;DHT22;28991;52.028;5.526;2023-07-30T15:23:24;24.20;57.60
40289;DHT22;28991;52.028;5.526;2023-07-30T15:25:49;23.70;57.40
40289;DHT22;28991;52.028;5.526;2023-07-30T15:28:16;23.60;57.30
40289;DHT22;28991;52.028;5.526;2023-07-30T15:30:42;23.60;57.30
40289;DHT22;28991;52.028;5.526;2023-07-30T15:33:08;23.60;57.30